Segamat, Malaysia
Current Conditions -  °F | °C
As of 3:00 PM on Friday 19 Dec 2014 (Local Time) from WMKM Reporting Station
Light Rain Light Rain  
Wind Chill: 79°   Ceiling: 26000
Heat Index: 82°   Visibility: 6mi
Dew Point: 75°   Wind: 3mph
Humidity: 89%   Direction: 50°NE
Pressure: 29.85"   Gusts: NA
Location:  2.52°N, 102.81°E
Report Text: WMKM 190700Z 05003KT 9999 -RA FEW012 SCT140 BKN260 26/24 Q1011
Loading
Personal Weather Stations






























Interactive Weather Map New forecast layout! Learn more

10-Day Weather Forecast

Advertisements
Track Severe Weather on mobile